Time;durP1;ratioP1;P1;durP2;ratioP2;P2;SDS_P1;SDS_P2;PMS_P1;PMS_P2;Temp;Humidity;BMP_temperature;BMP_pressure;BME280_temperature;BME280_humidity;BME280_pressure;Samples;Min_cycle;Max_cycle;Signal;HPM_P1;HPM_P2
2022/11/20 00:01:40;;;;;;;3.53;1.92;;;;;;;;;;4998505;28;20053;-72
2022/11/20 00:04:06;;;;;;;2.33;2.10;;;;;;;;;;4998302;28;20141;-73
2022/11/20 00:06:31;;;;;;;2.38;1.98;;;;;;;;;;4998944;28;20054;-73
2022/11/20 00:08:59;;;;;;;2.67;1.90;;;;;;;;;;4999869;28;20050;-73
2022/11/20 00:11:26;;;;;;;3.95;2.25;;;;;;;;;;5000187;28;20057;-73
2022/11/20 00:13:59;;;;;;;2.00;1.80;;;;;;;;;;4997719;28;20057;-74
2022/11/20 00:16:26;;;;;;;1.70;1.60;;;;;;;;;;4998399;28;20046;-73
2022/11/20 00:18:53;;;;;;;2.35;1.90;;;;;;;;;;4997959;28;20049;-73
2022/11/20 00:21:24;;;;;;;3.35;1.65;;;;;;;;;;5000435;28;20042;-73
2022/11/20 00:23:51;;;;;;;3.73;2.50;;;;;;;;;;4998569;28;20042;-73
2022/11/20 00:26:19;;;;;;;2.38;2.17;;;;;;;;;;4999233;28;20293;-73
2022/11/20 00:28:56;;;;;;;1.75;1.50;;;;;;;;;;4997743;28;20069;-73
2022/11/20 00:31:22;;;;;;;4.70;1.73;;;;;;;;;;5001900;28;20058;-73
2022/11/20 00:33:48;;;;;;;2.03;1.92;;;;;;;;;;5001233;28;20061;-73
2022/11/20 00:36:25;;;;;;;1.48;1.25;;;;;;;;;;5002379;28;20046;-73
2022/11/20 00:38:53;;;;;;;2.50;1.20;;;;;;;;;;5002625;28;20045;-73
2022/11/20 00:41:18;;;;;;;1.88;1.52;;;;;;;;;;5002658;28;20188;-73
2022/11/20 00:43:44;;;;;;;1.88;1.33;;;;;;;;;;5002074;28;20053;-73
2022/11/20 00:46:13;;;;;;;1.65;1.27;;;;;;;;;;5002437;28;20195;-73
2022/11/20 00:48:38;;;;;;;2.25;2.00;;;;;;;;;;5001151;28;20045;-74
2022/11/20 00:51:04;;;;;;;2.83;1.85;;;;;;;;;;5002058;28;20378;-74
2022/11/20 00:53:30;;;;;;;1.35;1.25;;;;;;;;;;5001908;28;20045;-73
2022/11/20 00:56:00;;;;;;;2.95;1.75;;;;;;;;;;5002060;28;20184;-73
2022/11/20 00:58:30;;;;;;;3.72;1.90;;;;;;;;;;5001290;28;20065;-73
2022/11/20 01:01:03;;;;;;;2.67;1.92;;;;;;;;;;5002685;28;20170;-73
2022/11/20 01:03:32;;;;;;;2.15;1.65;;;;;;;;;;5002021;28;20050;-73
2022/11/20 01:06:09;;;;;;;4.93;1.80;;;;;;;;;;4998947;28;20037;-73
2022/11/20 01:08:35;;;;;;;1.38;1.27;;;;;;;;;;4999002;28;20065;-73
2022/11/20 01:11:07;;;;;;;2.88;1.60;;;;;;;;;;4999768;28;20792;-74
2022/11/20 01:13:38;;;;;;;3.08;1.80;;;;;;;;;;4999146;28;20064;-73
2022/11/20 01:16:42;;;;;;;1.38;1.20;;;;;;;;;;4997879;28;20937;-73
2022/11/20 01:19:12;;;;;;;1.23;1.13;;;;;;;;;;4972805;28;20041;-74
2022/11/20 01:21:39;;;;;;;1.77;1.35;;;;;;;;;;5003009;28;20038;-73
2022/11/20 01:24:07;;;;;;;1.95;1.60;;;;;;;;;;5000815;28;20050;-74
2022/11/20 01:26:35;;;;;;;3.15;1.40;;;;;;;;;;5001199;28;20069;-74
2022/11/20 01:29:01;;;;;;;3.33;1.55;;;;;;;;;;5001306;28;20038;-73
2022/11/20 01:31:30;;;;;;;2.20;1.50;;;;;;;;;;5003124;28;20058;-73
2022/11/20 01:33:58;;;;;;;1.60;1.50;;;;;;;;;;5001922;28;20052;-73
2022/11/20 01:36:26;;;;;;;1.90;1.70;;;;;;;;;;5002951;28;20042;-73
2022/11/20 01:38:53;;;;;;;4.00;1.92;;;;;;;;;;4983310;28;20395;-73
2022/11/20 01:44:05;;;;;;;5.25;1.80;;;;;;;;;;5001169;28;20089;-73
2022/11/20 01:46:33;;;;;;;1.80;1.60;;;;;;;;;;5002508;28;20080;-74
2022/11/20 01:49:10;;;;;;;1.00;1.00;;;;;;;;;;5000800;28;20042;-74
2022/11/20 01:51:50;;;;;;;2.42;1.73;;;;;;;;;;5002489;28;20451;-73
2022/11/20 01:54:25;;;;;;;2.20;1.88;;;;;;;;;;5004941;28;20046;-75
2022/11/20 01:56:53;;;;;;;2.20;1.92;;;;;;;;;;5000503;28;20050;-73
2022/11/20 01:59:21;;;;;;;2.58;2.20;;;;;;;;;;5000798;28;20129;-72
2022/11/20 02:01:46;;;;;;;3.35;2.20;;;;;;;;;;5001233;28;20053;-73
2022/11/20 02:04:13;;;;;;;2.25;2.03;;;;;;;;;;5001996;28;20042;-73
2022/11/20 02:06:47;;;;;;;2.15;1.92;;;;;;;;;;5000590;28;20157;-72
2022/11/20 02:09:13;;;;;;;3.63;2.35;;;;;;;;;;5000112;28;20081;-73
2022/11/20 02:11:39;;;;;;;2.05;1.85;;;;;;;;;;5001215;28;20049;-73
2022/11/20 02:14:05;;;;;;;2.95;2.00;;;;;;;;;;4999953;28;20065;-72
2022/11/20 02:16:35;;;;;;;3.03;2.22;;;;;;;;;;5002057;28;20554;-74
2022/11/20 02:19:03;;;;;;;8.48;1.60;;;;;;;;;;5000221;28;20095;-75
2022/11/20 02:22:12;;;;;;;3.92;1.63;;;;;;;;;;4999509;28;20038;-74
2022/11/20 02:24:37;;;;;;;2.63;1.90;;;;;;;;;;4946869;28;20075;-74
2022/11/20 02:27:14;;;;;;;3.15;2.35;;;;;;;;;;4991807;28;20073;-74
2022/11/20 02:29:57;;;;;;;1.77;1.65;;;;;;;;;;4983361;28;20054;-73
2022/11/20 02:32:28;;;;;;;2.65;2.00;;;;;;;;;;4997886;28;20072;-73
2022/11/20 02:34:54;;;;;;;5.65;2.22;;;;;;;;;;5000219;28;20054;-73
2022/11/20 02:37:20;;;;;;;1.45;1.15;;;;;;;;;;5001727;28;20045;-73
2022/11/20 02:39:47;;;;;;;4.63;2.00;;;;;;;;;;5000701;28;20049;-73
2022/11/20 02:42:13;;;;;;;1.65;1.40;;;;;;;;;;4998997;28;20144;-73
2022/11/20 02:44:39;;;;;;;2.25;1.80;;;;;;;;;;4995220;28;20107;-73
2022/11/20 02:47:04;;;;;;;3.50;1.98;;;;;;;;;;5001232;28;20153;-73
2022/11/20 02:49:30;;;;;;;2.50;1.90;;;;;;;;;;5000853;28;21042;-73
2022/11/20 02:51:55;;;;;;;5.75;2.38;;;;;;;;;;5000373;28;20499;-73
2022/11/20 02:54:20;;;;;;;1.73;1.63;;;;;;;;;;4998171;28;20152;-73
2022/11/20 02:56:46;;;;;;;2.55;1.98;;;;;;;;;;4999772;28;20060;-73
2022/11/20 02:59:11;;;;;;;2.58;1.70;;;;;;;;;;4999151;28;20050;-73
2022/11/20 03:01:37;;;;;;;2.30;1.80;;;;;;;;;;5000094;28;20061;-73
2022/11/20 03:04:02;;;;;;;2.38;2.00;;;;;;;;;;5000298;28;20053;-73
2022/11/20 03:06:28;;;;;;;2.95;2.25;;;;;;;;;;4999889;28;20499;-73
2022/11/20 03:08:53;;;;;;;2.22;1.85;;;;;;;;;;4998985;28;20049;-73
2022/11/20 03:11:19;;;;;;;1.80;1.70;;;;;;;;;;4999867;28;20049;-73
2022/11/20 03:13:44;;;;;;;2.25;2.05;;;;;;;;;;4999966;28;20379;-73
2022/11/20 03:16:13;;;;;;;2.65;1.50;;;;;;;;;;4998570;28;20042;-73
2022/11/20 03:18:40;;;;;;;2.53;2.33;;;;;;;;;;4999118;28;20045;-73
2022/11/20 03:21:06;;;;;;;2.70;2.15;;;;;;;;;;5001027;28;20137;-73
2022/11/20 03:23:32;;;;;;;4.43;2.70;;;;;;;;;;4999915;28;20499;-73
2022/11/20 03:26:09;;;;;;;2.60;2.05;;;;;;;;;;5000401;28;20057;-73
2022/11/20 03:28:34;;;;;;;2.35;2.15;;;;;;;;;;5000031;28;20073;-73
2022/11/20 03:31:12;;;;;;;2.42;1.52;;;;;;;;;;4999015;28;20137;-73
2022/11/20 03:33:39;;;;;;;1.30;1.20;;;;;;;;;;4999463;28;20568;-73
2022/11/20 03:36:07;;;;;;;2.22;1.58;;;;;;;;;;5008596;28;20050;-73
2022/11/20 03:38:33;;;;;;;4.90;2.63;;;;;;;;;;4998552;28;20105;-73
2022/11/20 03:41:03;;;;;;;2.28;2.08;;;;;;;;;;5000695;28;20099;-73
2022/11/20 03:43:29;;;;;;;2.53;1.60;;;;;;;;;;4999579;28;20050;-73
2022/11/20 03:45:55;;;;;;;2.40;1.80;;;;;;;;;;4999611;28;20053;-73
2022/11/20 03:48:20;;;;;;;2.17;1.98;;;;;;;;;;4999004;28;20046;-73
2022/11/20 03:50:47;;;;;;;3.80;2.00;;;;;;;;;;4998758;28;20050;-73
2022/11/20 03:53:13;;;;;;;2.47;1.65;;;;;;;;;;5000507;28;20045;-73
2022/11/20 03:55:39;;;;;;;3.13;2.20;;;;;;;;;;4999611;28;20068;-73
2022/11/20 03:58:04;;;;;;;2.00;1.73;;;;;;;;;;4999989;28;20410;-73
2022/11/20 04:00:29;;;;;;;2.35;2.13;;;;;;;;;;4998592;28;20712;-73
2022/11/20 04:02:58;;;;;;;2.75;2.20;;;;;;;;;;4999220;28;20672;-73
2022/11/20 04:05:24;;;;;;;1.92;1.83;;;;;;;;;;5003095;28;20487;-73
2022/11/20 04:07:49;;;;;;;1.98;1.88;;;;;;;;;;5002307;28;20140;-73
2022/11/20 04:10:15;;;;;;;3.38;2.10;;;;;;;;;;5001696;28;20056;-73
2022/11/20 04:12:40;;;;;;;6.25;2.22;;;;;;;;;;5004700;28;20057;-74
2022/11/20 04:15:06;;;;;;;1.42;1.33;;;;;;;;;;5003171;28;20073;-73
2022/11/20 04:17:31;;;;;;;4.82;2.60;;;;;;;;;;5004483;28;20057;-73
2022/11/20 04:19:57;;;;;;;1.40;1.30;;;;;;;;;;5003142;28;20050;-74
2022/11/20 04:22:22;;;;;;;1.85;1.75;;;;;;;;;;5003049;28;20045;-73
2022/11/20 04:24:48;;;;;;;2.97;2.30;;;;;;;;;;5003390;28;20148;-73
2022/11/20 04:27:13;;;;;;;3.63;2.30;;;;;;;;;;5004120;28;20048;-73
2022/11/20 04:29:38;;;;;;;1.95;1.73;;;;;;;;;;5001974;28;20052;-73
2022/11/20 04:32:05;;;;;;;1.63;1.52;;;;;;;;;;5003479;28;20050;-73
2022/11/20 04:34:30;;;;;;;5.43;2.08;;;;;;;;;;5002360;28;20080;-73
2022/11/20 04:36:56;;;;;;;2.17;1.67;;;;;;;;;;5003625;28;20097;-72
2022/11/20 04:39:21;;;;;;;2.55;1.40;;;;;;;;;;5001795;28;20041;-73
2022/11/20 04:41:47;;;;;;;3.00;1.60;;;;;;;;;;5001461;28;20538;-73
2022/11/20 04:44:12;;;;;;;1.45;1.33;;;;;;;;;;4998225;28;20053;-73
2022/11/20 04:46:40;;;;;;;2.65;1.70;;;;;;;;;;5001720;28;20074;-73
2022/11/20 04:49:06;;;;;;;3.60;2.08;;;;;;;;;;5001407;28;20049;-72
2022/11/20 04:51:33;;;;;;;4.05;2.15;;;;;;;;;;5003264;28;20547;-73
2022/11/20 04:53:58;;;;;;;2.55;2.00;;;;;;;;;;5001115;28;20579;-73
2022/11/20 04:56:24;;;;;;;2.78;2.38;;;;;;;;;;5001002;28;20499;-72
2022/11/20 04:58:50;;;;;;;3.67;2.35;;;;;;;;;;4999131;28;20054;-73
2022/11/20 05:01:20;;;;;;;3.55;2.55;;;;;;;;;;5003018;28;20046;-72
2022/11/20 05:03:46;;;;;;;1.52;1.42;;;;;;;;;;5001190;28;20046;-73
2022/11/20 05:06:15;;;;;;;2.35;1.70;;;;;;;;;;4984432;28;20378;-74
2022/11/20 05:08:41;;;;;;;2.42;1.40;;;;;;;;;;5002088;28;20045;-73
2022/11/20 05:11:18;;;;;;;1.40;1.30;;;;;;;;;;5001649;28;20136;-73
2022/11/20 05:13:44;;;;;;;3.67;2.25;;;;;;;;;;5001539;28;20057;-74
2022/11/20 05:16:14;;;;;;;2.13;1.92;;;;;;;;;;5001134;28;20049;-73
2022/11/20 05:18:41;;;;;;;1.50;1.40;;;;;;;;;;5001744;28;20050;-73
2022/11/20 05:21:07;;;;;;;1.88;1.77;;;;;;;;;;5001504;28;20038;-73
2022/11/20 05:23:34;;;;;;;3.92;1.77;;;;;;;;;;5002532;28;20046;-73
2022/11/20 05:26:00;;;;;;;3.22;1.85;;;;;;;;;;5001975;28;20153;-73
2022/11/20 05:28:27;;;;;;;2.05;1.52;;;;;;;;;;5000623;28;20053;-73
2022/11/20 05:30:53;;;;;;;2.30;2.10;;;;;;;;;;5001847;28;20189;-73
2022/11/20 05:33:19;;;;;;;2.40;1.77;;;;;;;;;;5002255;28;20129;-73
2022/11/20 05:35:44;;;;;;;1.83;1.73;;;;;;;;;;5001451;28;20476;-73
2022/11/20 05:38:10;;;;;;;1.88;1.67;;;;;;;;;;5001013;28;20096;-73
2022/11/20 05:40:36;;;;;;;2.90;2.42;;;;;;;;;;5001722;28;20168;-73
2022/11/20 05:43:01;;;;;;;3.22;2.25;;;;;;;;;;5002227;28;20096;-73
2022/11/20 05:45:26;;;;;;;5.50;2.10;;;;;;;;;;5001951;28;20075;-73
2022/11/20 05:47:52;;;;;;;2.88;1.90;;;;;;;;;;5001398;28;20058;-73
2022/11/20 05:50:17;;;;;;;1.70;1.60;;;;;;;;;;4999344;28;20104;-73
2022/11/20 05:52:43;;;;;;;6.60;1.95;;;;;;;;;;5001979;28;20046;-73
2022/11/20 05:55:09;;;;;;;2.30;1.90;;;;;;;;;;5002008;28;20384;-73
2022/11/20 05:57:35;;;;;;;1.88;1.70;;;;;;;;;;5002186;28;20073;-73
2022/11/20 06:00:00;;;;;;;2.38;1.50;;;;;;;;;;5001207;28;20415;-73
2022/11/20 06:02:26;;;;;;;2.13;1.95;;;;;;;;;;4999480;28;20057;-73
2022/11/20 06:04:51;;;;;;;2.30;2.13;;;;;;;;;;5001477;28;20209;-73
2022/11/20 06:07:17;;;;;;;1.98;1.70;;;;;;;;;;5001630;28;20084;-73
2022/11/20 06:09:42;;;;;;;4.13;2.22;;;;;;;;;;5001139;28;20049;-73
2022/11/20 06:12:08;;;;;;;3.28;1.95;;;;;;;;;;4998159;28;20080;-73
2022/11/20 06:14:34;;;;;;;3.38;2.30;;;;;;;;;;5001732;28;20099;-73
2022/11/20 06:16:59;;;;;;;3.30;2.63;;;;;;;;;;5000731;28;20050;-73
2022/11/20 06:19:25;;;;;;;2.88;2.55;;;;;;;;;;5000752;28;20045;-73
2022/11/20 06:21:51;;;;;;;2.90;2.30;;;;;;;;;;4999109;28;20053;-73
2022/11/20 06:24:16;;;;;;;2.42;2.22;;;;;;;;;;4998899;28;20046;-74
2022/11/20 06:26:42;;;;;;;3.25;2.33;;;;;;;;;;5001006;28;20192;-74
2022/11/20 06:29:07;;;;;;;2.55;2.35;;;;;;;;;;5001394;28;20092;-73
2022/11/20 06:31:34;;;;;;;1.65;1.52;;;;;;;;;;5000857;28;20049;-75
2022/11/20 06:34:01;;;;;;;1.88;1.77;;;;;;;;;;4999295;28;20061;-75
2022/11/20 06:36:26;;;;;;;2.70;2.38;;;;;;;;;;5001102;28;20050;-74
2022/11/20 06:38:52;;;;;;;1.92;1.70;;;;;;;;;;5000711;28;21038;-75
2022/11/20 06:41:20;;;;;;;4.55;2.60;;;;;;;;;;5000038;28;20191;-74
2022/11/20 06:43:46;;;;;;;4.32;2.72;;;;;;;;;;5000622;28;20050;-75
2022/11/20 06:46:13;;;;;;;3.58;2.65;;;;;;;;;;4999233;28;20055;-75
2022/11/20 06:48:39;;;;;;;3.33;2.60;;;;;;;;;;4993966;28;20054;-74
2022/11/20 06:51:06;;;;;;;6.03;3.00;;;;;;;;;;4998698;28;20643;-74
2022/11/20 06:53:32;;;;;;;3.78;2.60;;;;;;;;;;4993838;28;20054;-74
2022/11/20 06:55:58;;;;;;;2.17;1.98;;;;;;;;;;4995590;28;20041;-74
2022/11/20 06:58:27;;;;;;;3.15;2.42;;;;;;;;;;4996273;28;20049;-75
2022/11/20 07:00:53;;;;;;;2.97;2.33;;;;;;;;;;4996762;28;20775;-74
2022/11/20 07:03:19;;;;;;;3.65;2.60;;;;;;;;;;4997488;28;21073;-75
2022/11/20 07:05:45;;;;;;;5.85;2.00;;;;;;;;;;4994243;28;20049;-74
2022/11/20 07:08:12;;;;;;;4.68;2.40;;;;;;;;;;4995894;28;20046;-75
2022/11/20 07:10:37;;;;;;;2.95;2.70;;;;;;;;;;4996869;28;20511;-74
2022/11/20 07:13:03;;;;;;;3.00;2.70;;;;;;;;;;4994843;28;20068;-75
2022/11/20 07:15:29;;;;;;;3.40;2.80;;;;;;;;;;4994086;28;20423;-74
2022/11/20 07:17:57;;;;;;;4.88;2.40;;;;;;;;;;4995814;28;20410;-75
2022/11/20 07:20:23;;;;;;;2.50;2.30;;;;;;;;;;4993941;28;20053;-74
2022/11/20 07:22:53;;;;;;;3.08;2.15;;;;;;;;;;4997043;28;20096;-74
2022/11/20 07:25:19;;;;;;;1.42;1.33;;;;;;;;;;4996329;28;20607;-75
2022/11/20 07:27:44;;;;;;;3.83;2.38;;;;;;;;;;4996069;28;20037;-75
2022/11/20 07:30:10;;;;;;;2.50;2.08;;;;;;;;;;4994430;28;20526;-74
2022/11/20 07:32:36;;;;;;;2.70;2.50;;;;;;;;;;4995622;28;20045;-74
2022/11/20 07:35:01;;;;;;;5.45;2.58;;;;;;;;;;4997633;28;20041;-75
2022/11/20 07:37:27;;;;;;;2.38;1.50;;;;;;;;;;4996782;28;20057;-75
2022/11/20 07:39:52;;;;;;;2.40;2.20;;;;;;;;;;4993666;28;20053;-75
2022/11/20 07:42:18;;;;;;;2.33;2.13;;;;;;;;;;4994922;28;20042;-75
2022/11/20 07:44:43;;;;;;;2.92;2.38;;;;;;;;;;4994886;28;20069;-75
2022/11/20 07:47:08;;;;;;;4.00;1.90;;;;;;;;;;4999780;28;20569;-75
2022/11/20 07:49:34;;;;;;;1.77;1.67;;;;;;;;;;4998783;28;20140;-75
2022/11/20 07:51:59;;;;;;;1.58;1.48;;;;;;;;;;4997514;28;20046;-75
2022/11/20 07:54:25;;;;;;;2.10;1.90;;;;;;;;;;4996719;28;20077;-76
2022/11/20 07:56:50;;;;;;;2.53;1.95;;;;;;;;;;4997960;28;20084;-76
2022/11/20 07:59:16;;;;;;;1.85;1.60;;;;;;;;;;4998738;28;20044;-76
2022/11/20 08:01:42;;;;;;;2.58;1.70;;;;;;;;;;4996024;28;20081;-76
2022/11/20 08:04:09;;;;;;;2.53;2.10;;;;;;;;;;4998033;28;20054;-76
2022/11/20 08:06:35;;;;;;;2.22;1.95;;;;;;;;;;4999946;28;20073;-76
2022/11/20 08:09:00;;;;;;;1.65;1.52;;;;;;;;;;4999413;28;20145;-76
2022/11/20 08:14:12;;;;;;;1.77;1.67;;;;;;;;;;4997492;28;20170;-76
2022/11/20 08:16:39;;;;;;;2.13;1.90;;;;;;;;;;4997401;28;20054;-75
2022/11/20 08:19:04;;;;;;;6.00;2.10;;;;;;;;;;4998722;28;20057;-78
2022/11/20 08:21:30;;;;;;;2.75;2.00;;;;;;;;;;5000079;28;20046;-76
2022/11/20 08:23:57;;;;;;;1.77;1.60;;;;;;;;;;4996086;28;20178;-74
2022/11/20 08:26:24;;;;;;;1.85;1.45;;;;;;;;;;4996394;28;20054;-73
2022/11/20 08:28:52;;;;;;;1.95;1.80;;;;;;;;;;4999694;28;20133;-73
2022/11/20 08:31:18;;;;;;;3.97;2.08;;;;;;;;;;4999380;28;20121;-73
2022/11/20 08:33:43;;;;;;;3.58;1.90;;;;;;;;;;4997900;28;20103;-73
2022/11/20 08:36:09;;;;;;;2.97;1.52;;;;;;;;;;4992958;28;20416;-73
2022/11/20 08:38:34;;;;;;;1.80;1.70;;;;;;;;;;4997059;28;20050;-75
2022/11/20 08:43:46;;;;;;;3.72;1.50;;;;;;;;;;4998906;28;20049;-73
2022/11/20 08:46:11;;;;;;;2.20;1.73;;;;;;;;;;4996918;28;20046;-72
2022/11/20 08:48:37;;;;;;;2.25;1.70;;;;;;;;;;4997855;28;20050;-71
2022/11/20 08:51:03;;;;;;;1.55;1.45;;;;;;;;;;5000226;28;20057;-71
2022/11/20 08:53:28;;;;;;;2.60;1.55;;;;;;;;;;5003520;28;20112;-74
2022/11/20 08:55:54;;;;;;;2.90;1.88;;;;;;;;;;5000836;28;20056;-72
2022/11/20 08:58:20;;;;;;;1.42;1.33;;;;;;;;;;5000923;28;20149;-72
2022/11/20 09:00:45;;;;;;;2.65;1.90;;;;;;;;;;5001265;28;20038;-71
2022/11/20 09:03:12;;;;;;;3.08;2.10;;;;;;;;;;5003038;28;20544;-71
2022/11/20 09:05:37;;;;;;;2.28;2.08;;;;;;;;;;5002305;28;20491;-72
2022/11/20 09:08:03;;;;;;;1.90;1.42;;;;;;;;;;5000045;28;20042;-72
2022/11/20 09:10:28;;;;;;;2.40;1.20;;;;;;;;;;5002357;28;20053;-72
2022/11/20 09:12:55;;;;;;;1.40;1.30;;;;;;;;;;5000941;28;20882;-73
2022/11/20 09:15:20;;;;;;;1.60;1.50;;;;;;;;;;5002829;28;20061;-73
2022/11/20 09:17:53;;;;;;;2.53;1.70;;;;;;;;;;5000147;28;20050;-72
2022/11/20 09:20:18;;;;;;;1.42;1.33;;;;;;;;;;5000868;28;20127;-73
2022/11/20 09:22:44;;;;;;;2.90;1.83;;;;;;;;;;5002199;28;20120;-71
2022/11/20 09:25:10;;;;;;;2.53;1.45;;;;;;;;;;5002401;28;20064;-71
2022/11/20 09:27:35;;;;;;;1.25;1.05;;;;;;;;;;5002425;28;20053;-71
2022/11/20 09:30:01;;;;;;;1.40;1.30;;;;;;;;;;4999914;28;20473;-71
2022/11/20 09:32:26;;;;;;;2.05;1.20;;;;;;;;;;5002153;28;20046;-71
2022/11/20 09:34:52;;;;;;;2.80;1.20;;;;;;;;;;5002894;28;20042;-72
2022/11/20 09:37:17;;;;;;;3.65;1.40;;;;;;;;;;5002011;28;20037;-72
2022/11/20 09:39:43;;;;;;;2.30;1.38;;;;;;;;;;5001316;28;20056;-72
2022/11/20 09:42:11;;;;;;;1.35;1.25;;;;;;;;;;5008072;28;20060;-76
2022/11/20 09:44:58;;;;;;;1.13;1.02;;;;;;;;;;5001968;28;20108;-73
2022/11/20 09:47:27;;;;;;;1.00;1.00;;;;;;;;;;5005781;28;20065;-73
2022/11/20 09:50:13;;;;;;;1.35;1.23;;;;;;;;;;5000645;28;20108;-73
2022/11/20 09:52:44;;;;;;;1.48;1.17;;;;;;;;;;4999136;28;20058;-72
2022/11/20 09:55:12;;;;;;;1.90;1.63;;;;;;;;;;5006409;28;20116;-77
2022/11/20 09:57:42;;;;;;;1.27;1.17;;;;;;;;;;5001818;28;20045;-76
2022/11/20 10:00:12;;;;;;;0.80;0.80;;;;;;;;;;4999543;28;20065;-71
2022/11/20 10:02:46;;;;;;;1.20;0.90;;;;;;;;;;4996431;28;20128;-71
2022/11/20 10:05:18;;;;;;;3.90;2.35;;;;;;;;;;4999314;28;20041;-74
2022/11/20 10:07:58;;;;;;;1.70;1.45;;;;;;;;;;4998417;28;20049;-73
2022/11/20 10:10:46;;;;;;;1.20;1.10;;;;;;;;;;5012281;28;20046;-72
2022/11/20 10:13:36;;;;;;;2.33;1.13;;;;;;;;;;4998182;28;20054;-73
2022/11/20 10:16:07;;;;;;;2.60;1.00;;;;;;;;;;4996866;28;20057;-75
2022/11/20 10:18:51;;;;;;;1.30;1.02;;;;;;;;;;4997549;28;20180;-74
2022/11/20 10:21:56;;;;;;;0.98;0.98;;;;;;;;;;5000121;28;20061;-73
2022/11/20 10:24:40;;;;;;;1.38;0.85;;;;;;;;;;5011931;28;20046;-72
2022/11/20 10:27:23;;;;;;;1.10;1.02;;;;;;;;;;4998796;28;20515;-72
2022/11/20 10:30:07;;;;;;;0.77;0.77;;;;;;;;;;4997558;28;20057;-73
2022/11/20 10:32:42;;;;;;;1.33;1.17;;;;;;;;;;4998964;28;20058;-72
2022/11/20 10:35:13;;;;;;;1.10;1.00;;;;;;;;;;4999214;28;20050;-73
2022/11/20 10:37:44;;;;;;;2.28;1.15;;;;;;;;;;4998695;28;20108;-72
2022/11/20 10:40:24;;;;;;;1.13;1.00;;;;;;;;;;4999409;28;20204;-72
2022/11/20 10:43:04;;;;;;;2.13;0.95;;;;;;;;;;4998319;28;20085;-73
2022/11/20 10:45:55;;;;;;;0.98;0.95;;;;;;;;;;5000376;28;20119;-72
2022/11/20 10:48:24;;;;;;;0.70;0.70;;;;;;;;;;5009533;28;20711;-72
2022/11/20 10:51:24;;;;;;;4.97;1.05;;;;;;;;;;4997787;28;20058;-74
2022/11/20 10:54:24;;;;;;;1.75;0.82;;;;;;;;;;4998406;28;20164;-72
2022/11/20 10:56:52;;;;;;;0.80;0.80;;;;;;;;;;4998669;28;20515;-72
2022/11/20 11:00:06;;;;;;;0.60;0.60;;;;;;;;;;4997718;28;20950;-74
2022/11/20 11:02:38;;;;;;;0.80;0.80;;;;;;;;;;4983830;28;20699;-72
2022/11/20 11:05:14;;;;;;;0.80;0.80;;;;;;;;;;4999189;28;20411;-75
2022/11/20 11:07:41;;;;;;;2.00;1.13;;;;;;;;;;4997093;28;20084;-75
2022/11/20 11:10:19;;;;;;;0.85;0.85;;;;;;;;;;4990979;28;20083;-75
2022/11/20 11:12:48;;;;;;;1.80;0.93;;;;;;;;;;4997811;28;20053;-76
2022/11/20 11:15:38;;;;;;;0.68;0.68;;;;;;;;;;4996731;28;20053;-74
2022/11/20 11:18:04;;;;;;;0.70;0.65;;;;;;;;;;4991422;28;20073;-74
2022/11/20 11:20:29;;;;;;;0.60;0.57;;;;;;;;;;4998938;28;20084;-74
2022/11/20 11:22:57;;;;;;;0.73;0.73;;;;;;;;;;4998189;28;20045;-77
2022/11/20 11:25:35;;;;;;;0.80;0.60;;;;;;;;;;4999193;28;20065;-74
2022/11/20 11:28:21;;;;;;;0.80;0.60;;;;;;;;;;4999082;28;20052;-78
2022/11/20 11:30:50;;;;;;;0.50;0.50;;;;;;;;;;4997613;28;20830;-76
2022/11/20 11:33:34;;;;;;;0.70;0.70;;;;;;;;;;4999930;28;20068;-77
2022/11/20 11:36:04;;;;;;;1.05;0.95;;;;;;;;;;4999504;28;20115;-75
2022/11/20 11:38:34;;;;;;;1.75;0.85;;;;;;;;;;4998406;28;20521;-75
2022/11/20 11:41:01;;;;;;;0.50;0.50;;;;;;;;;;4998502;28;20116;-74
2022/11/20 11:46:19;;;;;;;0.60;0.60;;;;;;;;;;4998308;28;20053;-74
2022/11/20 11:49:16;;;;;;;6.53;0.70;;;;;;;;;;4997338;28;20112;-72
2022/11/20 11:51:50;;;;;;;0.40;0.40;;;;;;;;;;4989757;28;20153;-74
2022/11/20 11:54:31;;;;;;;0.55;0.55;;;;;;;;;;4994475;28;20104;-73
2022/11/20 11:57:01;;;;;;;0.75;0.75;;;;;;;;;;4998256;28;20061;-72
2022/11/20 11:59:41;;;;;;;0.60;0.60;;;;;;;;;;4995966;28;20125;-76
2022/11/20 12:02:25;;;;;;;2.88;0.60;;;;;;;;;;4995984;28;20067;-75
2022/11/20 12:04:57;;;;;;;0.60;0.57;;;;;;;;;;4995281;28;20042;-73
2022/11/20 12:07:34;;;;;;;1.02;1.00;;;;;;;;;;4997028;28;20501;-76
2022/11/20 12:10:01;;;;;;;0.50;0.50;;;;;;;;;;4996536;28;20060;-74
2022/11/20 12:12:38;;;;;;;2.80;1.25;;;;;;;;;;4997088;28;20050;-75
2022/11/20 12:15:10;;;;;;;1.42;1.17;;;;;;;;;;4995975;28;20149;-73
2022/11/20 12:17:36;;;;;;;;;;;;;;;;;;4996515;28;20054;-75
2022/11/20 12:20:01;;;;;;;0.75;0.75;;;;;;;;;;4997065;28;19944;-73
2022/11/20 12:22:34;;;;;;;0.57;0.57;;;;;;;;;;4997692;28;20045;-75
2022/11/20 12:25:35;;;;;;;1.23;1.13;;;;;;;;;;4997918;28;20050;-73
2022/11/20 12:28:06;;;;;;;0.90;0.90;;;;;;;;;;4997533;28;20054;-72
2022/11/20 12:30:38;;;;;;;1.38;0.70;;;;;;;;;;5002222;28;20064;-71
2022/11/20 12:33:19;;;;;;;;;;;;;;;;;;5002597;28;20057;-72
2022/11/20 12:36:01;;;;;;;1.20;1.00;;;;;;;;;;5003477;28;20000;-71
2022/11/20 12:38:57;;;;;;;0.98;0.88;;;;;;;;;;4998412;28;20077;-72
2022/11/20 12:45:10;;;;;;;1.23;0.98;;;;;;;;;;5015556;28;20050;-73
2022/11/20 12:47:49;;;;;;;0.98;0.88;;;;;;;;;;5000377;28;20050;-75
2022/11/20 12:50:24;;;;;;;1.80;1.13;;;;;;;;;;5002577;28;20061;-73
2022/11/20 12:52:58;;;;;;;1.35;0.80;;;;;;;;;;5001919;28;20483;-72
2022/11/20 12:55:32;;;;;;;1.45;0.70;;;;;;;;;;5003165;28;20058;-79
2022/11/20 12:58:37;;;;;;;1.05;0.95;;;;;;;;;;5001902;28;20053;-73
2022/11/20 13:01:43;;;;;;;0.90;0.80;;;;;;;;;;4924663;29;20116;-73
2022/11/20 13:04:27;;;;;;;1.15;0.80;;;;;;;;;;5001310;28;20042;-75
2022/11/20 13:06:53;;;;;;;1.75;1.13;;;;;;;;;;5000938;28;20111;-74
2022/11/20 13:09:22;;;;;;;1.55;0.70;;;;;;;;;;5001184;28;20164;-75
2022/11/20 13:12:13;;;;;;;1.13;1.00;;;;;;;;;;5001015;28;20053;-72
2022/11/20 13:14:58;;;;;;;1.20;1.10;;;;;;;;;;5002240;28;20513;-73
2022/11/20 13:17:36;;;;;;;0.95;0.93;;;;;;;;;;5002229;28;20510;-73
2022/11/20 13:20:05;;;;;;;1.00;0.90;;;;;;;;;;5002036;28;20447;-73
2022/11/20 13:22:47;;;;;;;0.93;0.93;;;;;;;;;;5002248;28;20068;-73
2022/11/20 13:25:41;;;;;;;1.23;1.15;;;;;;;;;;5003777;28;20042;-74
2022/11/20 13:28:10;;;;;;;1.52;1.13;;;;;;;;;;4993203;28;20065;-71
2022/11/20 13:30:48;;;;;;;1.00;1.00;;;;;;;;;;5002039;28;20072;-72
2022/11/20 13:33:34;;;;;;;0.90;0.90;;;;;;;;;;5001234;28;20812;-72
2022/11/20 13:36:03;;;;;;;1.25;1.15;;;;;;;;;;5000966;28;20046;-74
2022/11/20 13:38:48;;;;;;;0.80;0.80;;;;;;;;;;5002507;28;20061;-73
2022/11/20 13:41:32;;;;;;;0.88;0.82;;;;;;;;;;5003179;28;20848;-72
2022/11/20 13:44:09;;;;;;;0.60;0.60;;;;;;;;;;4998932;28;20041;-74
2022/11/20 13:46:47;;;;;;;1.35;1.08;;;;;;;;;;5002571;28;20050;-73
2022/11/20 13:49:32;;;;;;;2.53;1.10;;;;;;;;;;5001068;28;20049;-73
2022/11/20 13:52:06;;;;;;;1.20;1.10;;;;;;;;;;5001790;28;20050;-71
2022/11/20 13:54:38;;;;;;;0.73;0.73;;;;;;;;;;5000745;28;20156;-71
2022/11/20 13:57:16;;;;;;;1.40;1.30;;;;;;;;;;5002308;28;20046;-69
2022/11/20 13:59:59;;;;;;;1.25;1.15;;;;;;;;;;4998156;28;20093;-71
2022/11/20 14:02:27;;;;;;;0.90;0.90;;;;;;;;;;5015222;28;20073;-72
2022/11/20 14:04:56;;;;;;;1.27;1.17;;;;;;;;;;5000279;28;20089;-69
2022/11/20 14:07:36;;;;;;;2.00;1.27;;;;;;;;;;5002461;28;20517;-70
2022/11/20 14:10:02;;;;;;;3.35;1.85;;;;;;;;;;5001159;28;20200;-70
2022/11/20 14:12:31;;;;;;;2.88;2.03;;;;;;;;;;5002342;28;20178;-70
2022/11/20 14:14:57;;;;;;;3.38;1.13;;;;;;;;;;5001560;28;20216;-71
2022/11/20 14:17:25;;;;;;;6.00;1.75;;;;;;;;;;5001314;28;20664;-72
2022/11/20 14:19:53;;;;;;;3.67;1.80;;;;;;;;;;5001027;28;20870;-72
2022/11/20 14:22:22;;;;;;;4.20;2.40;;;;;;;;;;5002243;28;20053;-72
2022/11/20 14:25:00;;;;;;;3.38;2.03;;;;;;;;;;5001528;28;20096;-75
2022/11/20 14:27:26;;;;;;;2.83;1.25;;;;;;;;;;4999570;28;20045;-74
2022/11/20 14:29:52;;;;;;;1.02;0.95;;;;;;;;;;4998779;28;20124;-73
2022/11/20 14:32:19;;;;;;;3.70;2.08;;;;;;;;;;4993729;28;20920;-72
2022/11/20 14:34:48;;;;;;;3.65;1.70;;;;;;;;;;4998633;28;20042;-76
2022/11/20 14:37:23;;;;;;;2.22;1.63;;;;;;;;;;5001248;28;20498;-72
2022/11/20 14:39:54;;;;;;;4.78;2.20;;;;;;;;;;4997532;28;20046;-71
2022/11/20 14:42:28;;;;;;;3.25;1.70;;;;;;;;;;4999408;28;20046;-73
2022/11/20 14:45:03;;;;;;;3.42;1.95;;;;;;;;;;4998769;28;20069;-71
2022/11/20 14:47:30;;;;;;;3.47;1.70;;;;;;;;;;4997851;28;20053;-72
2022/11/20 14:49:58;;;;;;;2.65;1.90;;;;;;;;;;4996613;28;20081;-75
2022/11/20 14:52:25;;;;;;;1.65;1.55;;;;;;;;;;5000257;28;20062;-76
2022/11/20 14:54:53;;;;;;;1.30;1.20;;;;;;;;;;4999087;28;20038;-73
2022/11/20 14:57:25;;;;;;;3.53;1.80;;;;;;;;;;4998491;28;20046;-71
2022/11/20 14:59:51;;;;;;;2.40;1.63;;;;;;;;;;4996874;28;20046;-74
2022/11/20 15:02:17;;;;;;;3.65;2.30;;;;;;;;;;4997909;28;20762;-72
2022/11/20 15:04:56;;;;;;;5.47;2.03;;;;;;;;;;4998973;28;20045;-77
2022/11/20 15:07:30;;;;;;;5.95;2.42;;;;;;;;;;4999536;28;20673;-72
2022/11/20 15:10:07;;;;;;;2.92;2.25;;;;;;;;;;4998313;28;20562;-74
2022/11/20 15:12:35;;;;;;;4.43;2.25;;;;;;;;;;4997785;28;20562;-75
2022/11/20 15:15:03;;;;;;;3.97;2.70;;;;;;;;;;4998904;28;20046;-72
2022/11/20 15:17:30;;;;;;;5.45;3.25;;;;;;;;;;4999543;28;20053;-72